Time;durP1;ratioP1;P1;durP2;ratioP2;P2;SDS_P1;SDS_P2;PMS_P1;PMS_P2;Temp;Humidity;BMP_temperature;BMP_pressure;BME280_temperature;BME280_humidity;BME280_pressure;Samples;Min_cycle;Max_cycle;Signal;HPM_P1;HPM_P2
2021/04/29 00:01:17;;;;;;;9.00;2.95;;;19.00;62.60;;;;;;5091997;28;20020;-73
2021/04/29 00:03:43;;;;;;;9.43;3.20;;;19.00;62.60;;;;;;5092672;28;20505;-73
2021/04/29 00:06:10;;;;;;;5.57;3.00;;;19.00;62.60;;;;;;5087816;28;20031;-73
2021/04/29 00:08:37;;;;;;;13.65;4.82;;;19.00;62.50;;;;;;5088030;28;20383;-73
2021/04/29 00:11:07;;;;;;;10.35;4.18;;;19.00;62.50;;;;;;5092718;28;20020;-73
2021/04/29 00:13:34;;;;;;;9.60;3.90;;;19.00;62.60;;;;;;5091785;28;20107;-73
2021/04/29 00:16:02;;;;;;;10.73;4.88;;;18.90;62.60;;;;;;5092889;28;20083;-72
2021/04/29 00:18:28;;;;;;;10.32;4.40;;;18.90;62.60;;;;;;5091628;28;20016;-72
2021/04/29 00:20:55;;;;;;;8.40;4.70;;;18.90;62.70;;;;;;5092829;28;20407;-73
2021/04/29 00:23:27;;;;;;;5.80;3.25;;;18.90;62.80;;;;;;5091361;28;20024;-72
2021/04/29 00:25:54;;;;;;;9.80;3.83;;;18.90;62.90;;;;;;5092403;28;20089;-73
2021/04/29 00:28:21;;;;;;;12.43;5.03;;;18.90;63.00;;;;;;5092264;28;20065;-72
2021/04/29 00:30:49;;;;;;;8.77;5.20;;;18.90;63.10;;;;;;5084916;28;20529;-72
2021/04/29 00:33:16;;;;;;;6.45;4.10;;;18.90;63.20;;;;;;5091895;28;20048;-72
2021/04/29 00:35:42;;;;;;;8.13;4.60;;;18.90;63.20;;;;;;5089249;28;20012;-72
2021/04/29 00:38:09;;;;;;;11.82;4.93;;;18.90;63.30;;;;;;5090672;28;20051;-72
2021/04/29 00:40:36;;;;;;;11.07;5.25;;;18.80;63.30;;;;;;5085509;28;20048;-71
2021/04/29 00:43:02;;;;;;;10.68;5.35;;;18.90;63.30;;;;;;5089802;28;20030;-72
2021/04/29 00:45:29;;;;;;;11.45;5.43;;;18.80;63.30;;;;;;5095312;28;20418;-72
2021/04/29 00:47:55;;;;;;;13.23;6.50;;;18.80;63.40;;;;;;5091156;28;20564;-72
2021/04/29 00:50:24;;;;;;;13.13;6.65;;;18.80;63.60;;;;;;5092227;28;20024;-71
2021/04/29 00:52:51;;;;;;;13.40;6.78;;;18.80;63.70;;;;;;5089857;28;21966;-71
2021/04/29 00:55:18;;;;;;;14.60;7.25;;;18.80;63.80;;;;;;5092139;28;20024;-72
2021/04/29 00:57:45;;;;;;;16.05;7.88;;;18.80;63.80;;;;;;5090785;28;20018;-72
2021/04/29 01:00:12;;;;;;;11.13;6.63;;;18.80;64.00;;;;;;5091864;28;20119;-72
2021/04/29 01:03:00;;;;;;;17.95;8.98;;;18.80;64.10;;;;;;5091444;28;20502;-72
2021/04/29 01:05:50;;;;;;;16.80;7.72;;;18.80;64.10;;;;;;5086089;28;20024;-72
2021/04/29 01:08:40;;;;;;;15.43;6.15;;;18.80;64.30;;;;;;5089953;28;20012;-72
2021/04/29 01:11:34;;;;;;;15.23;8.10;;;18.80;64.30;;;;;;5089027;28;20024;-71
2021/04/29 01:14:03;;;;;;;13.88;7.60;;;18.70;64.40;;;;;;5086339;28;20044;-71
2021/04/29 01:16:31;;;;;;;15.07;7.40;;;18.80;64.40;;;;;;5091708;28;20099;-72
2021/04/29 01:18:59;;;;;;;13.95;6.80;;;18.70;64.40;;;;;;5090497;28;20031;-72
2021/04/29 01:21:28;;;;;;;14.77;6.57;;;18.70;64.40;;;;;;5090699;28;20020;-71
2021/04/29 01:24:15;;;;;;;12.85;6.53;;;18.70;64.50;;;;;;5090738;28;20020;-72
2021/04/29 01:27:11;;;;;;;11.80;5.72;;;18.70;64.60;;;;;;5089555;28;20024;-72
2021/04/29 01:29:40;;;;;;;10.60;5.65;;;18.70;64.70;;;;;;5084934;28;20035;-72
2021/04/29 01:32:07;;;;;;;11.65;4.55;;;18.70;64.80;;;;;;5087818;28;20522;-72
2021/04/29 01:34:39;;;;;;;10.45;5.40;;;18.70;64.90;;;;;;5087186;28;20040;-72
2021/04/29 01:37:07;;;;;;;13.70;5.40;;;18.70;65.00;;;;;;5090100;28;20103;-71
2021/04/29 01:39:35;;;;;;;14.68;5.57;;;18.70;65.10;;;;;;5090795;28;20012;-72
2021/04/29 01:42:02;;;;;;;11.57;4.63;;;18.70;65.10;;;;;;5091147;28;20017;-71
2021/04/29 01:44:29;;;;;;;15.35;6.50;;;18.60;65.20;;;;;;5089646;28;20073;-73
2021/04/29 01:46:59;;;;;;;6.93;3.33;;;18.70;65.30;;;;;;5086217;28;20024;-72
2021/04/29 01:49:26;;;;;;;14.38;4.88;;;18.60;65.30;;;;;;5082449;28;20012;-71
2021/04/29 01:51:53;;;;;;;11.73;4.75;;;18.60;65.40;;;;;;5075893;28;20020;-72
2021/04/29 01:54:22;;;;;;;9.85;4.80;;;18.60;65.40;;;;;;5089636;28;20402;-71
2021/04/29 01:56:49;;;;;;;10.93;4.10;;;18.60;65.50;;;;;;5087170;28;20543;-72
2021/04/29 01:59:16;;;;;;;9.60;3.78;;;18.60;65.60;;;;;;5090241;28;20019;-71
2021/04/29 02:01:44;;;;;;;11.07;4.55;;;18.60;65.60;;;;;;5089549;28;20020;-72
2021/04/29 02:11:19;;;;;;;9.23;5.43;;;18.60;65.70;;;;;;5086367;28;20045;-72
2021/04/29 02:13:52;;;;;;;9.73;4.20;;;18.50;65.70;;;;;;5089505;28;20373;-73
2021/04/29 02:16:28;;;;;;;8.75;4.45;;;18.50;65.80;;;;;;5090021;28;20637;-72
2021/04/29 02:18:55;;;;;;;13.32;4.38;;;18.60;65.90;;;;;;5088638;28;20012;-72
2021/04/29 02:21:23;;;;;;;16.23;4.72;;;18.50;65.90;;;;;;5087039;28;20448;-72
2021/04/29 02:23:50;;;;;;;9.20;4.88;;;18.50;66.00;;;;;;5088956;28;20016;-72
2021/04/29 02:26:21;;;;;;;14.93;5.45;;;18.50;66.10;;;;;;5088195;28;20074;-72
2021/04/29 02:28:49;;;;;;;7.72;4.43;;;18.50;66.10;;;;;;5088866;28;20031;-72
2021/04/29 02:31:16;;;;;;;16.40;6.45;;;18.50;66.20;;;;;;5089419;28;20040;-72
2021/04/29 02:33:44;;;;;;;10.65;4.70;;;18.50;66.30;;;;;;5090000;28;20457;-73
2021/04/29 02:36:11;;;;;;;15.98;4.40;;;18.50;66.40;;;;;;5089374;28;20012;-72
2021/04/29 02:38:39;;;;;;;12.68;4.97;;;18.50;66.60;;;;;;5090130;28;20012;-72
2021/04/29 02:41:07;;;;;;;8.75;3.15;;;18.50;66.70;;;;;;5088913;28;20099;-72
2021/04/29 02:43:35;;;;;;;10.60;4.10;;;18.50;66.90;;;;;;5085433;28;20021;-71
2021/04/29 02:46:02;;;;;;;9.80;4.85;;;18.50;66.90;;;;;;5085212;28;20102;-72
2021/04/29 02:48:30;;;;;;;16.42;5.00;;;18.50;67.00;;;;;;5089236;28;20111;-72
2021/04/29 02:51:00;;;;;;;7.97;3.80;;;18.50;67.10;;;;;;5089640;28;20509;-72
2021/04/29 02:53:26;;;;;;;15.77;5.05;;;18.50;67.20;;;;;;5088300;28;20035;-72
2021/04/29 02:55:53;;;;;;;8.90;3.85;;;18.50;67.20;;;;;;5089156;28;20542;-72
2021/04/29 02:58:20;;;;;;;8.35;3.85;;;18.40;67.20;;;;;;5088278;28;20024;-72
2021/04/29 03:00:47;;;;;;;8.52;3.90;;;18.40;67.30;;;;;;5089962;28;20024;-72
2021/04/29 03:03:14;;;;;;;6.88;3.38;;;18.40;67.30;;;;;;5088695;28;20016;-72
2021/04/29 03:05:41;;;;;;;12.30;3.80;;;18.40;67.30;;;;;;5090208;28;20125;-72
2021/04/29 03:08:09;;;;;;;10.20;3.85;;;18.40;67.30;;;;;;5088705;28;20016;-71
2021/04/29 03:10:36;;;;;;;8.23;3.78;;;18.40;67.30;;;;;;5085598;28;20008;-72
2021/04/29 03:13:04;;;;;;;12.10;4.07;;;18.40;67.30;;;;;;5089321;28;20479;-71
2021/04/29 03:15:31;;;;;;;9.25;4.03;;;18.40;67.40;;;;;;5089147;28;20031;-72
2021/04/29 03:17:58;;;;;;;11.18;4.13;;;18.40;67.30;;;;;;5092014;28;20016;-72
2021/04/29 03:20:25;;;;;;;14.10;4.60;;;18.40;67.40;;;;;;5092804;28;20065;-72
2021/04/29 03:22:51;;;;;;;11.02;4.38;;;18.40;67.60;;;;;;5093676;28;20027;-72
2021/04/29 03:25:18;;;;;;;7.82;3.97;;;18.40;67.80;;;;;;5093176;28;20417;-72
2021/04/29 03:27:44;;;;;;;9.70;5.30;;;18.40;68.00;;;;;;5093173;28;20012;-71
2021/04/29 03:30:12;;;;;;;14.88;4.47;;;18.30;68.10;;;;;;5093537;28;20528;-71
2021/04/29 03:32:39;;;;;;;18.92;4.95;;;18.30;68.30;;;;;;5092392;28;20020;-72
2021/04/29 03:35:06;;;;;;;12.35;4.35;;;18.30;68.30;;;;;;5090408;28;20459;-71
2021/04/29 03:37:34;;;;;;;10.48;4.15;;;18.30;68.30;;;;;;5091754;28;20020;-71
2021/04/29 03:40:00;;;;;;;9.90;4.63;;;18.30;68.30;;;;;;5090391;28;20028;-69
2021/04/29 03:42:27;;;;;;;11.25;5.57;;;18.30;68.30;;;;;;5092485;28;20107;-70
2021/04/29 03:44:54;;;;;;;10.30;4.20;;;18.30;68.40;;;;;;5093176;28;20571;-71
2021/04/29 03:47:20;;;;;;;13.45;3.83;;;18.30;68.40;;;;;;5093201;28;20020;-70
2021/04/29 03:49:47;;;;;;;12.82;4.07;;;18.30;68.40;;;;;;5092543;28;20020;-71
2021/04/29 03:52:13;;;;;;;11.32;3.90;;;18.30;68.50;;;;;;5093388;28;20016;-71
2021/04/29 03:54:40;;;;;;;14.55;4.53;;;18.30;68.60;;;;;;5091888;28;20028;-71
2021/04/29 03:57:06;;;;;;;14.18;5.55;;;18.30;68.60;;;;;;5093231;28;20527;-70
2021/04/29 03:59:33;;;;;;;26.85;17.25;;;18.20;68.60;;;;;;5092087;28;20020;-72
2021/04/29 04:01:59;;;;;;;30.15;15.02;;;18.20;68.70;;;;;;5080857;28;20597;-72
2021/04/29 04:04:26;;;;;;;24.17;10.70;;;18.20;68.80;;;;;;5090068;28;20024;-71
2021/04/29 04:06:54;;;;;;;24.70;10.48;;;18.20;68.80;;;;;;5092414;28;20016;-71
2021/04/29 04:09:20;;;;;;;17.13;6.43;;;18.20;68.90;;;;;;5093009;28;20043;-72
2021/04/29 04:11:47;;;;;;;13.07;6.13;;;18.20;68.90;;;;;;5091445;28;20230;-71
2021/04/29 04:14:13;;;;;;;10.75;4.15;;;18.20;68.90;;;;;;5092685;28;20674;-71
2021/04/29 04:16:40;;;;;;;9.55;3.88;;;18.20;69.00;;;;;;5091525;28;20410;-71
2021/04/29 04:19:06;;;;;;;13.77;4.88;;;18.20;69.00;;;;;;5092987;28;20382;-70
2021/04/29 04:21:33;;;;;;;16.60;5.15;;;18.20;69.00;;;;;;5092000;28;20016;-71
2021/04/29 04:23:59;;;;;;;18.05;8.13;;;18.20;69.00;;;;;;5090539;28;20692;-71
2021/04/29 04:26:26;;;;;;;15.25;9.50;;;18.20;69.00;;;;;;5086541;28;20390;-71
2021/04/29 04:28:54;;;;;;;14.60;9.85;;;18.20;69.00;;;;;;5088158;28;20035;-71
2021/04/29 04:31:21;;;;;;;20.23;8.07;;;18.20;69.00;;;;;;5090531;28;20056;-71
2021/04/29 04:33:49;;;;;;;16.23;7.80;;;18.20;69.10;;;;;;5089862;28;20467;-71
2021/04/29 04:36:15;;;;;;;22.88;11.10;;;18.20;69.10;;;;;;5091070;28;20016;-72
2021/04/29 04:38:42;;;;;;;16.95;10.52;;;18.20;69.20;;;;;;5091117;28;20017;-71
2021/04/29 04:41:09;;;;;;;13.95;9.38;;;18.20;69.20;;;;;;5089980;28;20023;-71
2021/04/29 04:43:35;;;;;;;13.82;7.20;;;18.20;69.40;;;;;;5091554;28;20040;-71
2021/04/29 04:46:02;;;;;;;12.95;6.35;;;18.20;69.40;;;;;;5087733;28;20012;-70
2021/04/29 04:48:28;;;;;;;14.27;6.00;;;18.20;69.50;;;;;;5077627;28;20375;-70
2021/04/29 04:50:55;;;;;;;12.27;5.55;;;18.30;69.50;;;;;;5077378;28;20012;-71
2021/04/29 04:53:22;;;;;;;15.25;4.35;;;18.20;69.50;;;;;;5079338;28;20028;-71
2021/04/29 04:55:50;;;;;;;15.77;4.45;;;18.20;69.60;;;;;;5088322;28;20774;-72
2021/04/29 04:58:17;;;;;;;8.60;3.80;;;18.20;69.80;;;;;;5089098;28;20526;-73
2021/04/29 05:00:45;;;;;;;10.20;3.22;;;18.20;70.00;;;;;;5088900;28;20483;-73
2021/04/29 05:03:12;;;;;;;14.27;3.42;;;18.20;70.20;;;;;;5088635;28;20589;-73
2021/04/29 05:05:43;;;;;;;13.57;3.40;;;18.20;70.50;;;;;;5080291;28;20029;-74
2021/04/29 05:08:10;;;;;;;15.20;3.45;;;18.20;70.80;;;;;;5079323;28;20025;-72
2021/04/29 05:10:40;;;;;;;12.38;3.90;;;18.20;71.10;;;;;;5078358;28;20059;-73
2021/04/29 05:13:07;;;;;;;16.13;3.42;;;18.20;71.30;;;;;;5086874;28;20134;-72
2021/04/29 05:15:35;;;;;;;11.68;3.38;;;18.20;71.40;;;;;;5090208;28;20012;-72
2021/04/29 05:18:02;;;;;;;8.63;2.97;;;18.30;71.60;;;;;;5089500;28;20016;-73
2021/04/29 05:20:29;;;;;;;8.27;2.45;;;18.20;71.50;;;;;;5088464;28;20012;-72
2021/04/29 05:22:56;;;;;;;6.25;3.22;;;18.20;71.50;;;;;;5089693;28;20016;-74
2021/04/29 05:25:23;;;;;;;6.38;3.45;;;18.20;71.50;;;;;;5087883;28;20020;-71
2021/04/29 05:27:53;;;;;;;9.18;2.65;;;18.20;71.60;;;;;;5090579;28;20487;-75
2021/04/29 05:30:22;;;;;;;12.88;2.40;;;18.20;71.60;;;;;;5089812;28;20394;-73
2021/04/29 05:32:48;;;;;;;8.18;3.05;;;18.20;71.70;;;;;;5090766;28;20035;-73
2021/04/29 05:35:15;;;;;;;8.30;2.95;;;18.20;71.80;;;;;;5089547;28;20038;-74
2021/04/29 05:37:42;;;;;;;13.85;5.43;;;18.20;71.80;;;;;;5088841;28;20012;-76
2021/04/29 05:40:09;;;;;;;14.02;5.90;;;18.20;71.90;;;;;;5089119;28;20020;-75
2021/04/29 05:43:15;;;;;;;10.30;4.65;;;18.20;71.80;;;;;;5081168;28;20043;-75
2021/04/29 05:45:42;;;;;;;5.38;2.45;;;18.20;71.90;;;;;;5085337;28;20340;-75
2021/04/29 05:48:08;;;;;;;10.32;3.40;;;18.20;71.90;;;;;;5086600;28;20059;-76
2021/04/29 05:50:35;;;;;;;6.93;2.42;;;18.20;71.90;;;;;;5082274;28;20471;-76
2021/04/29 05:53:01;;;;;;;7.32;2.15;;;18.20;72.00;;;;;;5083502;28;20116;-75
2021/04/29 05:55:28;;;;;;;5.82;2.03;;;18.20;72.20;;;;;;5074897;28;21201;-75
2021/04/29 05:57:57;;;;;;;8.75;2.58;;;18.20;72.30;;;;;;5083074;28;20012;-75
2021/04/29 06:00:24;;;;;;;8.07;1.95;;;18.20;72.40;;;;;;5082214;28;20028;-76
2021/04/29 06:02:50;;;;;;;9.13;2.17;;;18.20;72.50;;;;;;5082373;28;20024;-73
2021/04/29 06:05:17;;;;;;;9.38;2.10;;;18.30;72.60;;;;;;5082027;28;20091;-73
2021/04/29 06:07:43;;;;;;;7.60;3.35;;;18.30;72.70;;;;;;5084419;28;20056;-79
2021/04/29 06:10:41;;;;;;;9.77;2.92;;;18.30;72.80;;;;;;5075489;28;20035;-76
2021/04/29 06:13:08;;;;;;;7.38;2.78;;;18.30;73.00;;;;;;5064374;28;20040;-74
2021/04/29 06:15:35;;;;;;;11.82;4.18;;;18.30;73.10;;;;;;5085899;28;20048;-74
2021/04/29 06:18:23;;;;;;;5.53;2.50;;;18.30;73.20;;;;;;5080168;28;20501;-73
2021/04/29 06:20:50;;;;;;;8.35;2.35;;;18.30;73.40;;;;;;5075022;28;20060;-76
2021/04/29 06:23:16;;;;;;;6.05;2.38;;;18.30;73.50;;;;;;5069365;28;20498;-76
2021/04/29 06:25:43;;;;;;;10.98;2.53;;;18.30;73.60;;;;;;5082870;28;20402;-76
2021/04/29 06:28:10;;;;;;;8.30;2.83;;;18.30;73.70;;;;;;5082327;28;20027;-75
2021/04/29 06:30:38;;;;;;;8.65;2.30;;;18.30;74.00;;;;;;5083266;28;20040;-75
2021/04/29 06:33:05;;;;;;;6.45;1.98;;;18.30;74.20;;;;;;5081288;28;20031;-75
2021/04/29 06:35:32;;;;;;;9.07;2.33;;;18.30;74.40;;;;;;5082653;28;20046;-75
2021/04/29 06:37:59;;;;;;;7.53;1.92;;;18.30;74.50;;;;;;5083945;28;20479;-75
2021/04/29 06:40:25;;;;;;;4.82;1.88;;;18.30;74.70;;;;;;5086099;28;20024;-77
2021/04/29 06:42:52;;;;;;;5.68;3.40;;;18.30;74.80;;;;;;5080795;28;20044;-75
2021/04/29 06:45:19;;;;;;;7.95;3.30;;;18.30;74.90;;;;;;5085998;28;20469;-77
2021/04/29 06:47:47;;;;;;;4.43;2.13;;;18.30;74.90;;;;;;5084903;28;20019;-76
2021/04/29 06:50:13;;;;;;;3.83;1.70;;;18.30;74.80;;;;;;5080561;28;20039;-76
2021/04/29 06:52:40;;;;;;;2.75;1.52;;;18.30;74.80;;;;;;5080536;28;20024;-76
2021/04/29 06:55:07;;;;;;;10.18;3.30;;;18.30;74.80;;;;;;5085145;28;20040;-76
2021/04/29 06:57:33;;;;;;;5.65;1.95;;;18.30;74.90;;;;;;5083215;28;20056;-76
2021/04/29 07:00:00;;;;;;;5.45;1.88;;;18.30;74.90;;;;;;5082122;28;20368;-75
2021/04/29 07:02:26;;;;;;;7.50;1.80;;;18.30;75.00;;;;;;5085046;28;20028;-73
2021/04/29 07:04:53;;;;;;;5.18;2.53;;;18.30;75.80;;;;;;5081618;28;20024;-74
2021/04/29 07:07:19;;;;;;;7.35;1.75;;;18.30;75.20;;;;;;5084612;28;20471;-73
2021/04/29 07:09:46;;;;;;;4.38;2.08;;;18.40;75.40;;;;;;5077095;28;20081;-74
2021/04/29 07:12:13;;;;;;;7.22;2.05;;;18.40;75.40;;;;;;5083030;28;20039;-73
2021/04/29 07:14:40;;;;;;;8.63;1.90;;;18.40;75.40;;;;;;5082698;28;20545;-73
2021/04/29 07:17:06;;;;;;;7.47;2.30;;;18.40;75.40;;;;;;5083896;28;20050;-73
2021/04/29 07:19:33;;;;;;;8.30;2.22;;;18.40;75.50;;;;;;5081232;28;20127;-71
2021/04/29 07:21:59;;;;;;;8.80;2.15;;;18.40;75.50;;;;;;5080684;28;20019;-73
2021/04/29 07:24:26;;;;;;;5.85;1.65;;;18.40;75.50;;;;;;5081857;28;20024;-73
2021/04/29 07:26:53;;;;;;;6.45;1.70;;;18.40;75.50;;;;;;5085105;28;20494;-72
2021/04/29 07:29:19;;;;;;;7.68;1.80;;;18.40;75.50;;;;;;5087112;28;20835;-74
2021/04/29 07:31:46;;;;;;;5.05;2.05;;;18.40;75.50;;;;;;5080989;28;20407;-73
2021/04/29 07:34:13;;;;;;;6.70;1.88;;;18.50;75.50;;;;;;5079177;28;20094;-72
2021/04/29 07:36:40;;;;;;;4.97;1.70;;;18.50;75.40;;;;;;5082341;28;20372;-70
2021/04/29 07:39:06;;;;;;;11.27;2.50;;;18.50;75.30;;;;;;5082177;28;20008;-72
2021/04/29 07:41:33;;;;;;;7.30;3.83;;;18.50;75.20;;;;;;5080815;28;20062;-73
2021/04/29 07:44:01;;;;;;;17.40;9.68;;;18.50;75.20;;;;;;5082603;28;20391;-73
2021/04/29 07:46:28;;;;;;;11.95;6.32;;;18.50;75.10;;;;;;5084065;28;20016;-72
2021/04/29 07:48:54;;;;;;;11.57;4.68;;;18.50;75.00;;;;;;5082031;28;20024;-75
2021/04/29 07:51:21;;;;;;;10.10;4.18;;;18.60;74.90;;;;;;5078184;28;20804;-73
2021/04/29 07:53:48;;;;;;;9.20;3.78;;;18.60;74.70;;;;;;5082178;28;20051;-71
2021/04/29 07:56:15;;;;;;;9.70;2.65;;;18.60;74.40;;;;;;5084132;28;20020;-71
2021/04/29 07:58:41;;;;;;;7.10;2.25;;;18.70;74.00;;;;;;5079219;28;20043;-72
2021/04/29 08:01:08;;;;;;;7.72;2.72;;;18.70;73.80;;;;;;5083150;28;20016;-72
2021/04/29 08:03:35;;;;;;;8.65;3.03;;;18.70;73.60;;;;;;5082806;28;20017;-72
2021/04/29 08:06:02;;;;;;;6.05;1.80;;;18.70;73.30;;;;;;5086320;28;20055;-73
2021/04/29 08:08:29;;;;;;;6.15;1.73;;;18.80;73.10;;;;;;5086642;28;20635;-73
2021/04/29 08:10:55;;;;;;;10.85;3.03;;;18.80;72.80;;;;;;5087446;28;20044;-75
2021/04/29 08:13:22;;;;;;;8.45;2.83;;;18.80;72.40;;;;;;5085291;28;20081;-73
2021/04/29 08:15:49;;;;;;;3.72;1.50;;;18.90;72.00;;;;;;5089591;28;20038;-73
2021/04/29 08:18:16;;;;;;;6.80;1.88;;;18.90;71.50;;;;;;5070485;28;20375;-72
2021/04/29 08:20:43;;;;;;;6.47;1.65;;;18.90;71.00;;;;;;5088541;28;20048;-74
2021/04/29 08:23:09;;;;;;;5.22;1.30;;;19.00;70.70;;;;;;5084671;28;20628;-75
2021/04/29 08:25:36;;;;;;;5.18;1.65;;;19.00;70.10;;;;;;5086738;28;20055;-74
2021/04/29 08:28:03;;;;;;;8.88;3.75;;;19.00;69.80;;;;;;5084161;28;20113;-73
2021/04/29 08:30:30;;;;;;;9.02;4.30;;;19.10;69.60;;;;;;5087605;28;20086;-73
2021/04/29 08:32:59;;;;;;;4.18;3.33;;;19.10;69.30;;;;;;5081182;28;20034;-74
2021/04/29 08:35:27;;;;;;;9.73;3.60;;;19.10;68.70;;;;;;5068694;28;20031;-73
2021/04/29 08:37:53;;;;;;;3.72;2.03;;;19.10;68.40;;;;;;5085083;28;20057;-73
2021/04/29 08:40:21;;;;;;;5.30;2.45;;;19.20;68.30;;;;;;5086094;28;20016;-75
2021/04/29 08:42:48;;;;;;;6.45;1.83;;;19.20;68.00;;;;;;5086374;28;20077;-74
2021/04/29 08:45:16;;;;;;;6.63;1.88;;;19.20;67.80;;;;;;5085155;28;20032;-72
2021/04/29 08:47:42;;;;;;;13.32;1.52;;;19.30;67.40;;;;;;5084495;28;20597;-76
2021/04/29 08:50:10;;;;;;;8.98;1.67;;;19.30;67.00;;;;;;5087397;28;20060;-75
2021/04/29 08:52:39;;;;;;;6.53;1.73;;;19.40;66.50;;;;;;5084834;28;20028;-73
2021/04/29 08:55:09;;;;;;;7.32;1.50;;;19.40;66.20;;;;;;5085440;28;20037;-74
2021/04/29 08:57:35;;;;;;;8.90;1.63;;;19.40;65.90;;;;;;5086946;28;20087;-73
2021/04/29 09:00:04;;;;;;;7.95;1.45;;;19.40;65.80;;;;;;5086558;28;20030;-73
2021/04/29 09:02:35;;;;;;;6.00;1.63;;;19.50;65.40;;;;;;5084266;28;20024;-74
2021/04/29 09:05:17;;;;;;;4.95;1.70;;;19.50;65.10;;;;;;5081658;28;20145;-74
2021/04/29 09:08:02;;;;;;;3.88;1.63;;;19.50;64.80;;;;;;5069921;28;20024;-75
2021/04/29 09:10:31;;;;;;;7.03;2.80;;;19.50;64.60;;;;;;5085294;28;20051;-74
2021/04/29 09:13:00;;;;;;;7.47;1.98;;;19.60;64.30;;;;;;5082116;28;20059;-75
2021/04/29 09:15:33;;;;;;;4.25;1.40;;;19.60;64.00;;;;;;5085561;28;20104;-75
2021/04/29 09:18:07;;;;;;;6.32;1.60;;;19.70;63.70;;;;;;5083404;28;22056;-77
2021/04/29 09:21:16;;;;;;;6.35;2.88;;;19.70;63.20;;;;;;5086912;28;20399;-74
2021/04/29 09:24:22;;;;;;;13.23;5.05;;;19.70;62.90;;;;;;5078528;28;20055;-74
2021/04/29 09:27:32;;;;;;;10.07;3.72;;;19.80;62.60;;;;;;5081063;28;20499;-73
2021/04/29 09:30:38;;;;;;;6.43;2.65;;;19.90;62.10;;;;;;5084288;28;20033;-74
2021/04/29 09:33:45;;;;;;;4.45;1.40;;;19.90;61.60;;;;;;5080762;28;20024;-74
2021/04/29 09:37:03;;;;;;;6.45;1.98;;;19.90;61.20;;;;;;5080776;28;20059;-74
2021/04/29 09:40:09;;;;;;;5.60;1.45;;;19.90;61.00;;;;;;5083308;28;20035;-73
2021/04/29 09:43:15;;;;;;;6.82;2.13;;;19.90;61.00;;;;;;5083373;28;20487;-73
2021/04/29 09:46:21;;;;;;;5.53;1.60;;;19.90;60.80;;;;;;5081348;28;20057;-74
2021/04/29 09:49:42;;;;;;;4.95;1.48;;;20.00;61.00;;;;;;5080712;28;20131;-74
2021/04/29 09:52:58;;;;;;;7.15;1.33;;;20.00;60.90;;;;;;5084180;28;20425;-74
2021/04/29 09:55:29;;;;;;;6.18;1.20;;;20.10;60.50;;;;;;5082980;28;20501;-75
2021/04/29 09:58:17;;;;;;;4.28;1.10;;;20.10;60.00;;;;;;5084410;28;20046;-74
2021/04/29 10:00:48;;;;;;;3.13;1.10;;;20.20;59.30;;;;;;5080235;28;20024;-75
2021/04/29 10:03:20;;;;;;;5.10;1.23;;;20.20;58.70;;;;;;5082500;28;20157;-73
2021/04/29 10:05:51;;;;;;;4.85;1.17;;;20.20;58.30;;;;;;5086857;28;20047;-73
2021/04/29 10:08:23;;;;;;;12.48;7.75;;;20.20;57.90;;;;;;5079453;28;20407;-74
2021/04/29 10:10:57;;;;;;;7.85;3.85;;;20.20;58.00;;;;;;5085340;28;20475;-76
2021/04/29 10:13:30;;;;;;;10.00;3.03;;;20.30;58.70;;;;;;5087350;28;20031;-74
2021/04/29 10:15:57;;;;;;;8.60;2.58;;;20.30;59.20;;;;;;5085621;28;20097;-74
2021/04/29 10:18:24;;;;;;;4.28;1.63;;;20.30;59.20;;;;;;5082433;28;20079;-75
2021/04/29 10:20:53;;;;;;;6.75;2.03;;;20.30;59.10;;;;;;5085497;28;20019;-77
2021/04/29 10:23:20;;;;;;;8.77;2.80;;;20.30;59.00;;;;;;5068821;28;20397;-74
2021/04/29 10:25:55;;;;;;;6.57;1.40;;;20.30;58.90;;;;;;5088869;28;20032;-74
2021/04/29 10:28:34;;;;;;;6.60;1.65;;;20.30;58.40;;;;;;5080889;28;20024;-74
2021/04/29 10:31:13;;;;;;;7.47;2.35;;;20.30;57.80;;;;;;5085965;28;20041;-76
2021/04/29 10:33:53;;;;;;;5.07;1.20;;;20.30;57.40;;;;;;5081659;28;20040;-76
2021/04/29 10:36:20;;;;;;;6.13;1.10;;;20.20;57.20;;;;;;5085870;28;20546;-75
2021/04/29 10:38:47;;;;;;;4.63;1.05;;;20.30;57.10;;;;;;5085765;28;20020;-72
2021/04/29 10:41:25;;;;;;;7.30;1.75;;;20.30;57.00;;;;;;5085701;28;20049;-75
2021/04/29 10:43:53;;;;;;;5.85;1.38;;;20.30;57.10;;;;;;5085400;28;20070;-73
2021/04/29 10:46:29;;;;;;;2.85;0.93;;;20.40;56.90;;;;;;5081106;28;20358;-73
2021/04/29 10:49:41;;;;;;;4.85;1.63;;;20.40;57.00;;;;;;5079371;28;20072;-75
2021/04/29 10:52:08;;;;;;;4.90;0.93;;;20.50;57.30;;;;;;5082125;28;20063;-74
2021/04/29 10:54:34;;;;;;;4.35;1.00;;;20.60;57.20;;;;;;5085288;28;20043;-75
2021/04/29 10:57:11;;;;;;;4.43;1.40;;;20.60;56.50;;;;;;5086979;28;20027;-75
2021/04/29 10:59:38;;;;;;;9.65;1.85;;;20.70;56.40;;;;;;5080929;28;20063;-74
2021/04/29 11:02:04;;;;;;;10.70;1.95;;;20.70;56.20;;;;;;5084399;28;20035;-74
2021/04/29 11:04:41;;;;;;;4.30;1.08;;;20.70;55.30;;;;;;5080596;28;20111;-74
2021/04/29 11:07:13;;;;;;;2.50;0.85;;;20.80;55.10;;;;;;5084806;28;20028;-75
2021/04/29 11:09:40;;;;;;;2.42;0.90;;;20.80;54.80;;;;;;5086532;28;20028;-75
2021/04/29 11:12:08;;;;;;;8.25;1.55;;;20.80;54.80;;;;;;5075415;28;20025;-75
2021/04/29 11:14:44;;;;;;;5.97;2.45;;;20.90;54.80;;;;;;5087538;28;20032;-74
2021/04/29 11:17:27;;;;;;;5.18;0.70;;;21.00;54.60;;;;;;5085421;28;20028;-74
2021/04/29 11:19:57;;;;;;;10.13;3.22;;;21.00;54.70;;;;;;5082732;28;20107;-74
2021/04/29 11:22:34;;;;;;;4.18;2.30;;;21.00;54.40;;;;;;5088317;28;20457;-73
2021/04/29 11:25:01;;;;;;;12.43;2.53;;;21.10;54.70;;;;;;5088633;28;20539;-73
2021/04/29 11:28:07;;;;;;;5.88;1.58;;;21.20;54.80;;;;;;5075813;28;20027;-78
2021/04/29 11:30:35;;;;;;;;;;;21.20;54.60;;;;;;5082540;28;20479;-74
2021/04/29 11:33:08;;;;;;;7.55;2.17;;;21.30;54.80;;;;;;5083866;28;19912;-74
2021/04/29 11:35:37;;;;;;;6.30;1.55;;;21.30;54.90;;;;;;5083929;28;20031;-74
2021/04/29 11:38:07;;;;;;;11.27;1.80;;;21.30;55.00;;;;;;5088335;28;20519;-75
2021/04/29 11:40:34;;;;;;;7.53;2.65;;;21.30;55.20;;;;;;5086706;28;20012;-74
2021/04/29 11:43:03;;;;;;;8.45;1.10;;;21.40;55.20;;;;;;5080728;28;20062;-76
2021/04/29 11:45:32;;;;;;;5.97;1.30;;;21.40;55.20;;;;;;5080994;28;20042;-74
2021/04/29 11:48:05;;;;;;;4.50;1.10;;;21.40;55.30;;;;;;5089264;28;20016;-75
2021/04/29 11:50:44;;;;;;;4.00;1.02;;;21.50;55.10;;;;;;5086160;28;20087;-74
2021/04/29 11:53:36;;;;;;;7.20;1.63;;;21.50;55.30;;;;;;5084026;28;20063;-75
2021/04/29 11:56:05;;;;;;;12.48;4.50;;;21.50;55.40;;;;;;5086068;28;20050;-75
2021/04/29 11:58:33;;;;;;;7.80;1.83;;;21.50;55.50;;;;;;5086512;28;20036;-75
2021/04/29 12:01:00;;;;;;;4.35;1.70;;;21.50;55.50;;;;;;5084492;28;20563;-75
2021/04/29 12:03:28;;;;;;;5.43;1.20;;;21.50;55.40;;;;;;5088419;28;20031;-74
2021/04/29 12:05:59;;;;;;;7.32;1.45;;;21.50;55.10;;;;;;5087815;28;20028;-74
2021/04/29 12:08:32;;;;;;;4.20;0.93;;;21.40;55.10;;;;;;5086619;28;20024;-75
2021/04/29 12:11:38;;;;;;;5.97;1.30;;;21.50;55.00;;;;;;5090113;28;20097;-77
2021/04/29 12:14:44;;;;;;;5.10;1.42;;;21.50;54.70;;;;;;5088123;28;20051;-75
2021/04/29 12:17:10;;;;;;;3.75;1.38;;;21.50;54.70;;;;;;5086021;28;20021;-77
2021/04/29 12:19:37;;;;;;;5.28;1.40;;;21.50;54.70;;;;;;5089670;28;20134;-76
2021/04/29 12:22:04;;;;;;;3.63;2.67;;;21.50;54.20;;;;;;5088732;28;20822;-74
2021/04/29 12:24:41;;;;;;;5.10;3.00;;;21.50;53.70;;;;;;5087860;28;20104;-75
2021/04/29 12:27:18;;;;;;;6.30;2.40;;;21.50;53.70;;;;;;5086981;28;20023;-73
2021/04/29 12:29:47;;;;;;;5.82;2.38;;;21.50;53.50;;;;;;5071268;28;20062;-73
2021/04/29 12:32:14;;;;;;;4.90;1.42;;;21.50;53.60;;;;;;5087874;28;20521;-75
2021/04/29 12:34:45;;;;;;;57.75;51.58;;;21.50;53.60;;;;;;5088141;28;20043;-75
2021/04/29 12:37:13;;;;;;;26.70;22.85;;;21.50;53.70;;;;;;5085511;28;20043;-73
2021/04/29 12:39:47;;;;;;;19.58;16.70;;;21.50;53.80;;;;;;5086622;28;20494;-76
2021/04/29 12:42:18;;;;;;;13.77;11.13;;;21.50;53.80;;;;;;5083700;28;20023;-72
2021/04/29 12:44:50;;;;;;;5.88;4.65;;;21.60;53.70;;;;;;5090823;28;20031;-76
2021/04/29 12:47:28;;;;;;;10.43;5.03;;;21.60;53.70;;;;;;5084466;28;20077;-76
2021/04/29 12:50:10;;;;;;;5.10;3.10;;;21.70;53.50;;;;;;5087103;28;20027;-74
2021/04/29 12:52:51;;;;;;;6.95;2.38;;;21.70;53.40;;;;;;5089325;28;20028;-74
2021/04/29 12:55:20;;;;;;;3.70;1.77;;;21.70;53.30;;;;;;5086679;28;20135;-75
2021/04/29 12:57:47;;;;;;;6.80;2.25;;;21.70;53.10;;;;;;5085388;28;20029;-76
2021/04/29 13:00:15;;;;;;;3.10;0.93;;;21.60;52.80;;;;;;5085955;28;20474;-73
2021/04/29 13:02:44;;;;;;;4.47;1.10;;;21.70;52.60;;;;;;5084455;28;20035;-78
2021/04/29 13:05:13;;;;;;;2.22;0.90;;;21.60;52.60;;;;;;5086049;28;20028;-73
2021/04/29 13:07:43;;;;;;;7.63;1.70;;;21.60;52.60;;;;;;5088466;28;20069;-74
2021/04/29 13:10:19;;;;;;;3.30;0.90;;;21.60;52.20;;;;;;5085559;28;20021;-74